• Join FlightAware (Why Join?)
  • Login
  • US Flag 
02:09PM EDT


 

Airport Tracker/Info


-or-


 

Live Flight TrackerFlight Track Log ✈ FIN873 ✈ 24-Apr-2013 ✈ EFHK / HEL - LFPG / CDG

Flight Track Log - Related Links

Times and Time Zones

All times are in EDT time to prevent confusion due to time zone crossing. See the FIN873 flight status page for this flight to view local times or setup timezone preferences in your user account.

Time Position Orientation Groundspeed Altitude Reporting Facility
EDT Latitude Longitude Course Direction KTS MPH feet Rate Location/Type
09:22AM 60.1483 24.4121 239° Southwest  Level Estimated
09:23AM 60.0914 24.2297 238° Southwest  Level Estimated
09:24AM 60.0343 24.0478 238° Southwest  Level Estimated
09:25AM 59.9770 23.8666 238° Southwest  Level Estimated
09:26AM 59.9194 23.6860 238° Southwest  Level Estimated
09:27AM 59.8616 23.5061 237° Southwest  Level Estimated
09:28AM 59.8035 23.3267 237° Southwest  Level Estimated
09:29AM 59.7452 23.1481 237° Southwest  Level Estimated
09:30AM 59.6867 22.9700 237° Southwest  Level Estimated
09:31AM 59.6279 22.7925 237° Southwest  Level Estimated
09:32AM 59.5689 22.6157 237° Southwest  Level Estimated
09:33AM 59.5096 22.4394 237° Southwest  Level Estimated
09:34AM 59.4501 22.2638 236° Southwest  Level Estimated
09:35AM 59.3904 22.0889 236° Southwest  Level Estimated
09:36AM 59.3304 21.9145 236° Southwest  Level Estimated
09:37AM 59.2702 21.7408 236° Southwest  Level Estimated
09:38AM 59.2098 21.5676 236° Southwest  Level Estimated
09:39AM 59.1491 21.3951 236° Southwest  Level Estimated
09:40AM 59.0882 21.2232 235° Southwest  Level Estimated
09:41AM 59.0271 21.0519 235° Southwest  Level Estimated
09:42AM 58.9657 20.8812 235° Southwest  Level Estimated
09:43AM 58.9042 20.7111 235° Southwest  Level Estimated
09:44AM 58.8424 20.5417 235° Southwest  Level Estimated
09:45AM 58.7804 20.3728 235° Southwest  Level Estimated
09:46AM 58.7181 20.2045 235° Southwest  Level Estimated
09:47AM 58.6557 20.0368 234° Southwest  Level Estimated
09:48AM 58.5930 19.8698 234° Southwest  Level Estimated
09:49AM 58.5301 19.7033 234° Southwest  Level Estimated
09:50AM 58.4670 19.5374 234° Southwest  Level Estimated
09:51AM 58.4037 19.3722 234° Southwest  Level Estimated
09:52AM 58.3402 19.2075 234° Southwest  Level Estimated
09:53AM 58.2765 19.0434 234° Southwest  Level Estimated
09:54AM 58.2125 18.8799 233° Southwest  Level Estimated
09:55AM 58.1484 18.7170 233° Southwest  Level Estimated
09:56AM 58.0840 18.5547 233° Southwest  Level Estimated
09:57AM 58.0195 18.3929 233° Southwest  Level Estimated
09:58AM 57.9547 18.2318 233° Southwest  Level Estimated
09:59AM 57.8897 18.0712 233° Southwest  Level Estimated
10:00AM 57.8246 17.9112 233° Southwest  Level Estimated
10:01AM 57.7592 17.7518 232° Southwest  Level Estimated
10:02AM 57.6936 17.5930 232° Southwest  Level Estimated
10:03AM 57.6278 17.4347 232° Southwest  Level Estimated
10:04AM 57.5619 17.2770 232° Southwest  Level Estimated
10:05AM 57.4957 17.1199 232° Southwest  Level Estimated
10:06AM 57.4294 16.9634 232° Southwest  Level Estimated
10:07AM 57.3628 16.8074 232° Southwest  Level Estimated
10:08AM 57.2961 16.6520 232° Southwest  Level Estimated
10:09AM 57.2291 16.4971 231° Southwest  Level Estimated
10:10AM 57.1620 16.3428 231° Southwest  Level Estimated
10:11AM 57.0947 16.1891 231° Southwest  Level Estimated
10:12AM 57.0272 16.0359 231° Southwest  Level Estimated
10:13AM 56.9595 15.8833 231° Southwest  Level Estimated
10:14AM 56.8917 15.7312 231° Southwest  Level Estimated
10:15AM 56.8236 15.5797 231° Southwest  Level Estimated
10:16AM 56.7553 15.4288 231° Southwest  Level Estimated
10:17AM 56.6869 15.2784 230° Southwest  Level Estimated
10:18AM 56.6183 15.1285 230° Southwest  Level Estimated
10:19AM 56.5495 14.9792 230° Southwest  Level Estimated
10:20AM 56.4806 14.8304 230° Southwest  Level Estimated
10:21AM 56.4114 14.6822 230° Southwest  Level Estimated
10:22AM 56.3421 14.5345 230° Southwest  Level Estimated
10:23AM 56.2727 14.3873 230° Southwest  Level Estimated
10:24AM 56.2030 14.2407 230° Southwest  Level Estimated
10:25AM 56.1332 14.0946 229° Southwest  Level Estimated
10:26AM 56.0631 13.9490 229° Southwest  Level Estimated
10:27AM 55.9930 13.8040 229° Southwest  Level Estimated
10:28AM 55.9226 13.6594 229° Southwest  Level Estimated
10:29AM 55.8521 13.5155 229° Southwest  Level Estimated
10:30AM 55.7814 13.3720 229° Southwest  Level Estimated
10:31AM 55.7106 13.2291 229° Southwest  Level Estimated
10:32AM 55.6396 13.0866 229° Southwest  Level Estimated
10:33AM 55.5684 12.9447 228° Southwest  Level Estimated
10:34AM 55.4971 12.8033 228° Southwest  Level Estimated
10:35AM 55.4255 12.6624 228° Southwest  Level Estimated
10:36AM 55.3539 12.5221 228° Southwest  Level Estimated
10:37AM 55.2821 12.3822 228° Southwest  Level Estimated
10:38AM 55.2101 12.2428 228° Southwest  Level Estimated
10:39AM 55.1379 12.1040 228° Southwest  Level Estimated
10:40AM 55.0656 11.9656 228° Southwest  Level Estimated
10:41AM 54.9932 11.8278 228° Southwest  Level Estimated
10:42AM 54.9206 11.6904 227° Southwest  Level Estimated
10:43AM 54.8478 11.5535 227° Southwest  Level Estimated
10:44AM 54.7749 11.4172 227° Southwest  Level Estimated
10:45AM 54.7018 11.2813 227° Southwest  Level Estimated
10:46AM 54.6286 11.1459 227° Southwest  Level Estimated
10:47AM 54.5552 11.0110 227° Southwest  Level Estimated
10:48AM 54.4817 10.8766 227° Southwest  Level Estimated
10:49AM 54.4080 10.7427 227° Southwest  Level Estimated
10:50AM 54.3342 10.6092 227° Southwest  Level Estimated
10:51AM 54.2602 10.4762 226° Southwest  Level Estimated
10:52AM 54.1861 10.3437 226° Southwest  Level Estimated
10:53AM 54.1119 10.2117 226° Southwest  Level Estimated
10:54AM 54.0375 10.0802 226° Southwest  Level Estimated
10:55AM 53.9629 9.9491 226° Southwest  Level Estimated
10:56AM 53.8882 9.8185 226° Southwest  Level Estimated
10:57AM 53.8134 9.6883 226° Southwest  Level Estimated
10:58AM 53.7384 9.5586 226° Southwest  Level Estimated
10:59AM 53.6633 9.4294 226° Southwest  Level Estimated
11:00AM 53.5881 9.3007 225° Southwest  Level Estimated
11:01AM 53.5127 9.1724 225° Southwest  Level Estimated
11:02AM 53.4372 9.0445 225° Southwest  Level Estimated
11:03AM 53.3615 8.9171 225° Southwest  Level Estimated
11:04AM 53.2857 8.7902 225° Southwest  Level Estimated
11:05AM 53.2098 8.6637 225° Southwest  Level Estimated
11:06AM 53.1337 8.5377 225° Southwest  Level Estimated
11:07AM 53.0575 8.4121 225° Southwest  Level Estimated
11:08AM 52.9812 8.2869 225° Southwest  Level Estimated
11:09AM 52.9048 8.1622 225° Southwest  Level Estimated
11:10AM 52.8282 8.0379 224° Southwest  Level Estimated
11:11AM 52.7510 7.9133 224° Southwest  Level Estimated
11:12AM 52.6737 7.7892 224° Southwest  Level Estimated
11:13AM 52.5962 7.6654 224° Southwest  Level Estimated
11:14AM 52.5186 7.5421 224° Southwest  Level Estimated
11:15AM 52.4409 7.4193 224° Southwest  Level Estimated
11:16AM 52.3631 7.2968 224° Southwest  Level Estimated
11:17AM 52.2851 7.1748 224° Southwest  Level Estimated
11:18AM 52.2070 7.0533 224° Southwest  Level Estimated
11:19AM 52.1288 6.9321 224° Southwest  Level Estimated
11:20AM 52.0504 6.8114 223° Southwest  Level Estimated
11:21AM 51.9720 6.6911 223° Southwest  Level Estimated
11:22AM 51.8934 6.5712 223° Southwest  Level Estimated
11:23AM 51.8147 6.4518 223° Southwest  Level Estimated
11:24AM 51.7359 6.3327 223° Southwest  Level Estimated
11:25AM 51.6569 6.2141 223° Southwest  Level Estimated
11:26AM 51.5778 6.0959 223° Southwest  Level Estimated
11:27AM 51.4986 5.9781 223° Southwest  Level Estimated
11:28AM 51.4193 5.8607 223° Southwest  Level Estimated
11:29AM 51.3399 5.7438 223° Southwest  Level Estimated
11:30AM 51.2604 5.6272 223° Southwest  Level Estimated
11:31AM 51.1807 5.5110 222° Southwest  Level Estimated
11:32AM 51.1010 5.3952 222° Southwest  Level Estimated
11:33AM 51.0211 5.2798 222° Southwest  Level Estimated
11:34AM 50.9411 5.1649 222° Southwest  Level Estimated
11:35AM 50.8610 5.0503 222° Southwest  Level Estimated
11:36AM 50.7808 4.9361 222° Southwest  Level Estimated
11:37AM 50.7004 4.8223 222° Southwest  Level Estimated
11:38AM 50.6200 4.7089 222° Southwest  Level Estimated
11:39AM 50.5394 4.5959 222° Southwest  Level Estimated
11:40AM 50.4588 4.4832 222° Southwest  Level Estimated
11:41AM 50.3780 4.3710 222° Southwest  Level Estimated
11:42AM 50.2971 4.2591 221° Southwest  Level Estimated
11:43AM 50.2162 4.1476 221° Southwest  Level Estimated
11:44AM 50.1351 4.0365 221° Southwest  Level Estimated
11:45AM 50.0539 3.9258 221° Southwest  Level Estimated
11:46AM 49.9726 3.8154 221° Southwest  Level Estimated
11:47AM 49.8912 3.7054 221° Southwest  Level Estimated
11:48AM 49.8097 3.5958 221° Southwest  Level Estimated
11:49AM 49.7281 3.4865 221° Southwest  Level Estimated
11:50AM 49.6464 3.3777 221° Southwest  Level Estimated
11:51AM 49.5645 3.2691 221° Southwest  Level Estimated
11:52AM 49.4826 3.1610 221° Southwest  Level Estimated
11:53AM 49.4006 3.0532 221° Southwest  Level Estimated
11:54AM 49.3185 2.9458 220° Southwest  Level Estimated
11:55AM 49.2363 2.8387 220° Southwest  Level Estimated
11:56AM 49.1540 2.7320 220° Southwest  Level Estimated
11:57AM 49.0695 2.6228 220° Southwest  Level Estimated
11:58AM 49.0128 2.5500 220° Southwest  Level Estimated
11:59AM 49.0128 2.5500 180° South  Level Estimated
12:00PM 49.0128 2.5500 180° South  Level Estimated
12:01PM 49.0128 2.5500 180° South  Level Estimated
12:02PM 49.0128 2.5500 180° South  Level Estimated
12:03PM 49.0128 2.5500 180° South  Level Estimated
12:04PM 49.0128 2.5500 180° South  Level Estimated
12:05PM 49.0128 2.5500 180° South  Level Estimated
12:06PM 49.0128 2.5500 180° South  Level Estimated
12:07PM 49.0128 2.5500 180° South  Level Estimated
12:08PM 49.0128 2.5500 180° South  Level Estimated
12:09PM 49.0128 2.5500 180° South  Level Estimated